Time;durP1;ratioP1;P1;durP2;ratioP2;P2;SDS_P1;SDS_P2;PMS_P1;PMS_P2;Temp;Humidity;BMP_temperature;BMP_pressure;BME280_temperature;BME280_humidity;BME280_pressure;Samples;Min_cycle;Max_cycle;Signal;HPM_P1;HPM_P2
2023/08/30 00:00:37;;;;;;;2.97;1.42;;;;;;;;;;5056002;28;20048;-78
2023/08/30 00:03:02;;;;;;;1.40;1.17;;;;;;;;;;5056072;28;20029;-78
2023/08/30 00:05:27;;;;;;;1.40;1.30;;;;;;;;;;5055575;28;20557;-79
2023/08/30 00:07:53;;;;;;;1.50;1.10;;;;;;;;;;5054576;28;20028;-79
2023/08/30 00:10:19;;;;;;;2.40;1.30;;;;;;;;;;5057463;28;20032;-78
2023/08/30 00:12:44;;;;;;;1.25;1.15;;;;;;;;;;5056965;28;20032;-77
2023/08/30 00:15:09;;;;;;;2.03;1.50;;;;;;;;;;5057064;28;20037;-79
2023/08/30 00:17:35;;;;;;;2.83;1.30;;;;;;;;;;5055037;28;20036;-79
2023/08/30 00:20:00;;;;;;;3.22;1.10;;;;;;;;;;5057454;28;20032;-80
2023/08/30 00:22:27;;;;;;;1.58;1.23;;;;;;;;;;5056309;28;20031;-79
2023/08/30 00:24:52;;;;;;;2.10;1.13;;;;;;;;;;5055056;28;20094;-80
2023/08/30 00:27:18;;;;;;;1.27;1.17;;;;;;;;;;5055701;28;20487;-77
2023/08/30 00:29:43;;;;;;;2.55;1.20;;;;;;;;;;5056287;28;20024;-78
2023/08/30 00:32:08;;;;;;;1.70;1.58;;;;;;;;;;5057703;28;20063;-78
2023/08/30 00:34:33;;;;;;;3.53;1.30;;;;;;;;;;5058364;28;20029;-78
2023/08/30 00:36:59;;;;;;;1.70;1.20;;;;;;;;;;5057156;28;20025;-79
2023/08/30 00:39:24;;;;;;;1.80;1.40;;;;;;;;;;5057263;28;20294;-78
2023/08/30 00:41:49;;;;;;;2.13;1.35;;;;;;;;;;5056966;28;20033;-78
2023/08/30 00:44:15;;;;;;;2.17;1.35;;;;;;;;;;5057575;28;20021;-78
2023/08/30 00:46:40;;;;;;;4.40;1.58;;;;;;;;;;5057477;28;20021;-78
2023/08/30 00:49:06;;;;;;;1.85;1.40;;;;;;;;;;5055999;28;20079;-78
2023/08/30 00:51:32;;;;;;;2.38;1.60;;;;;;;;;;5055848;28;20056;-78
2023/08/30 00:54:02;;;;;;;3.22;1.50;;;;;;;;;;5056615;28;20021;-77
2023/08/30 00:56:28;;;;;;;1.60;1.35;;;;;;;;;;5054603;28;20017;-78
2023/08/30 00:58:54;;;;;;;2.00;1.40;;;;;;;;;;5055601;28;20020;-78
2023/08/30 01:01:19;;;;;;;2.20;1.50;;;;;;;;;;5055778;28;20112;-79
2023/08/30 01:03:45;;;;;;;1.45;1.35;;;;;;;;;;5055518;28;20081;-79
2023/08/30 01:06:10;;;;;;;3.55;1.40;;;;;;;;;;5055177;28;20025;-79
2023/08/30 01:08:36;;;;;;;1.90;1.38;;;;;;;;;;5055116;28;20446;-78
2023/08/30 01:11:18;;;;;;;2.80;1.42;;;;;;;;;;5055566;28;20025;-77
2023/08/30 01:14:04;;;;;;;2.38;1.58;;;;;;;;;;5054004;28;20025;-78
2023/08/30 01:16:30;;;;;;;2.17;1.60;;;;;;;;;;5053313;28;20425;-77
2023/08/30 01:18:57;;;;;;;1.70;1.50;;;;;;;;;;5053858;28;20028;-77
2023/08/30 01:21:52;;;;;;;2.95;1.55;;;;;;;;;;5052524;28;20024;-77
2023/08/30 01:24:29;;;;;;;2.80;1.70;;;;;;;;;;5053609;28;20068;-79
2023/08/30 01:27:12;;;;;;;4.22;1.65;;;;;;;;;;5054128;28;20021;-77
2023/08/30 01:29:42;;;;;;;2.45;1.65;;;;;;;;;;5052850;28;20090;-77
2023/08/30 01:32:09;;;;;;;5.32;1.80;;;;;;;;;;5053868;28;20033;-78
2023/08/30 01:34:37;;;;;;;3.22;1.80;;;;;;;;;;5053937;28;20079;-77
2023/08/30 01:37:06;;;;;;;3.28;2.00;;;;;;;;;;5053313;28;20025;-78
2023/08/30 01:39:32;;;;;;;2.00;1.70;;;;;;;;;;5054100;28;20048;-77
2023/08/30 01:42:00;;;;;;;2.22;1.70;;;;;;;;;;5056771;28;20029;-77
2023/08/30 01:44:28;;;;;;;2.33;1.80;;;;;;;;;;5057686;28;20048;-78
2023/08/30 01:46:53;;;;;;;2.50;1.80;;;;;;;;;;5056686;28;20503;-78
2023/08/30 01:49:20;;;;;;;3.88;2.08;;;;;;;;;;5057300;28;20021;-78
2023/08/30 01:51:45;;;;;;;2.35;1.83;;;;;;;;;;5058440;28;20028;-78
2023/08/30 01:54:17;;;;;;;5.50;2.10;;;;;;;;;;5058741;28;20056;-77
2023/08/30 01:56:42;;;;;;;2.33;2.00;;;;;;;;;;5058709;28;20036;-78
2023/08/30 01:59:08;;;;;;;3.55;2.20;;;;;;;;;;5058885;28;20099;-78
2023/08/30 02:01:33;;;;;;;2.70;2.03;;;;;;;;;;5058347;28;20021;-78
2023/08/30 02:04:00;;;;;;;2.25;1.88;;;;;;;;;;5058833;28;20103;-78
2023/08/30 02:06:41;;;;;;;2.92;2.40;;;;;;;;;;5060956;28;20021;-78
2023/08/30 02:09:24;;;;;;;6.63;2.47;;;;;;;;;;5060875;28;20147;-78
2023/08/30 02:11:50;;;;;;;2.72;2.35;;;;;;;;;;5057963;28;20472;-79
2023/08/30 02:14:18;;;;;;;3.60;2.50;;;;;;;;;;5058184;28;20060;-78
2023/08/30 02:16:45;;;;;;;2.92;2.35;;;;;;;;;;5056673;28;20056;-78
2023/08/30 02:19:11;;;;;;;2.95;2.10;;;;;;;;;;5056143;28;20084;-78
2023/08/30 02:21:37;;;;;;;3.10;2.30;;;;;;;;;;5058745;28;20021;-78
2023/08/30 02:24:03;;;;;;;3.83;2.00;;;;;;;;;;5056808;28;20043;-77
2023/08/30 02:26:28;;;;;;;3.83;2.30;;;;;;;;;;5056974;28;20036;-77
2023/08/30 02:28:53;;;;;;;2.40;1.95;;;;;;;;;;5057572;28;20103;-78
2023/08/30 02:31:18;;;;;;;2.75;2.10;;;;;;;;;;5058529;28;20045;-78
2023/08/30 02:33:44;;;;;;;2.22;1.70;;;;;;;;;;5058720;28;20024;-79
2023/08/30 02:36:10;;;;;;;4.97;2.10;;;;;;;;;;5058360;28;20141;-79
2023/08/30 02:38:36;;;;;;;3.05;1.95;;;;;;;;;;5060893;28;20028;-78
2023/08/30 02:41:01;;;;;;;2.40;1.90;;;;;;;;;;5060830;28;20515;-78
2023/08/30 02:43:26;;;;;;;3.67;2.00;;;;;;;;;;5057867;28;20021;-78
2023/08/30 02:45:52;;;;;;;2.28;1.90;;;;;;;;;;5058695;28;20025;-78
2023/08/30 02:48:17;;;;;;;2.22;1.67;;;;;;;;;;5059309;28;20036;-77
2023/08/30 02:50:43;;;;;;;2.33;2.00;;;;;;;;;;5061294;28;20027;-78
2023/08/30 02:53:08;;;;;;;2.65;1.67;;;;;;;;;;5058911;28;20391;-77
2023/08/30 02:55:34;;;;;;;2.47;2.08;;;;;;;;;;5058364;28;20021;-78
2023/08/30 02:57:59;;;;;;;5.90;2.10;;;;;;;;;;5058721;28;20100;-78
2023/08/30 03:00:24;;;;;;;3.17;1.85;;;;;;;;;;5058897;28;20052;-78
2023/08/30 03:02:50;;;;;;;2.25;1.95;;;;;;;;;;5058228;28;20107;-77
2023/08/30 03:05:15;;;;;;;3.40;1.88;;;;;;;;;;5059371;28;20082;-77
2023/08/30 03:07:40;;;;;;;3.58;1.77;;;;;;;;;;5058949;28;20072;-78
2023/08/30 03:10:06;;;;;;;2.55;1.92;;;;;;;;;;5059050;28;20024;-78
2023/08/30 03:12:32;;;;;;;2.20;2.00;;;;;;;;;;5056890;28;20025;-77
2023/08/30 03:14:58;;;;;;;5.03;1.80;;;;;;;;;;5057971;28;20032;-78
2023/08/30 03:17:24;;;;;;;2.92;1.95;;;;;;;;;;5057530;28;20025;-78
2023/08/30 03:19:52;;;;;;;2.67;1.90;;;;;;;;;;5056798;28;20051;-78
2023/08/30 03:22:18;;;;;;;3.83;2.10;;;;;;;;;;5055985;28;20492;-78
2023/08/30 03:24:43;;;;;;;5.25;2.17;;;;;;;;;;5056870;28;20079;-78
2023/08/30 03:27:08;;;;;;;2.90;1.73;;;;;;;;;;5057238;28;20468;-77
2023/08/30 03:29:33;;;;;;;4.03;2.00;;;;;;;;;;5055911;28;20017;-78
2023/08/30 03:31:58;;;;;;;2.38;1.90;;;;;;;;;;5057055;28;20254;-78
2023/08/30 03:34:24;;;;;;;8.45;2.00;;;;;;;;;;5060700;28;20013;-78
2023/08/30 03:36:54;;;;;;;5.78;2.10;;;;;;;;;;5058231;28;20024;-77
2023/08/30 03:39:19;;;;;;;3.10;2.17;;;;;;;;;;5059843;28;20029;-77
2023/08/30 03:41:45;;;;;;;4.63;2.00;;;;;;;;;;5060045;28;20037;-77
2023/08/30 03:44:11;;;;;;;4.63;2.10;;;;;;;;;;5057306;28;20099;-78
2023/08/30 03:46:36;;;;;;;3.85;1.77;;;;;;;;;;5055694;28;20116;-78
2023/08/30 03:49:01;;;;;;;3.95;1.88;;;;;;;;;;5056607;28;20471;-78
2023/08/30 03:51:27;;;;;;;4.30;2.10;;;;;;;;;;5056018;28;20028;-78
2023/08/30 03:53:52;;;;;;;5.80;2.10;;;;;;;;;;5054223;28;20265;-78
2023/08/30 03:56:17;;;;;;;2.60;1.90;;;;;;;;;;5055212;28;20077;-78
2023/08/30 03:58:44;;;;;;;2.75;1.88;;;;;;;;;;5054980;28;20032;-79
2023/08/30 04:01:09;;;;;;;3.78;2.17;;;;;;;;;;5054374;28;20034;-79
2023/08/30 04:03:34;;;;;;;2.53;1.87;;;;;;;;;;5053222;28;20029;-78
2023/08/30 04:06:00;;;;;;;3.75;1.90;;;;;;;;;;5055017;28;20265;-78
2023/08/30 04:08:25;;;;;;;2.13;1.77;;;;;;;;;;5054199;28;20021;-79
2023/08/30 04:10:52;;;;;;;2.40;1.92;;;;;;;;;;5055276;28;20439;-79
2023/08/30 04:13:18;;;;;;;5.10;2.00;;;;;;;;;;5055573;28;20051;-77
2023/08/30 04:15:43;;;;;;;2.13;1.85;;;;;;;;;;5056681;28;20037;-77
2023/08/30 04:18:08;;;;;;;2.77;1.90;;;;;;;;;;5054079;28;20048;-77
2023/08/30 04:20:34;;;;;;;5.53;1.93;;;;;;;;;;5055933;28;20257;-79
2023/08/30 04:23:01;;;;;;;2.33;1.85;;;;;;;;;;5055173;28;20364;-78
2023/08/30 04:25:27;;;;;;;3.92;1.90;;;;;;;;;;5055371;28;20025;-78
2023/08/30 04:27:52;;;;;;;4.05;1.90;;;;;;;;;;5055592;28;20396;-78
2023/08/30 04:30:17;;;;;;;3.17;1.70;;;;;;;;;;5055604;28;20029;-78
2023/08/30 04:32:43;;;;;;;4.57;1.77;;;;;;;;;;5057210;28;20713;-79
2023/08/30 04:35:09;;;;;;;4.53;2.03;;;;;;;;;;5057221;28;20021;-78
2023/08/30 04:37:34;;;;;;;2.83;2.05;;;;;;;;;;5056460;28;20025;-79
2023/08/30 04:39:59;;;;;;;3.47;1.73;;;;;;;;;;5055008;28;20380;-79
2023/08/30 04:42:25;;;;;;;5.18;1.90;;;;;;;;;;5055972;28;20032;-78
2023/08/30 04:44:51;;;;;;;1.80;1.60;;;;;;;;;;5055717;28;20033;-78
2023/08/30 04:47:16;;;;;;;2.65;1.90;;;;;;;;;;5057884;28;20028;-78
2023/08/30 04:49:42;;;;;;;4.78;1.90;;;;;;;;;;5057534;28;20033;-78
2023/08/30 04:52:07;;;;;;;2.70;1.70;;;;;;;;;;5057321;28;20028;-79
2023/08/30 04:54:32;;;;;;;2.83;1.90;;;;;;;;;;5057314;28;20472;-78
2023/08/30 04:56:57;;;;;;;2.90;1.80;;;;;;;;;;5056947;28;20353;-78
2023/08/30 04:59:23;;;;;;;2.78;2.10;;;;;;;;;;5057933;28;20258;-77
2023/08/30 05:01:49;;;;;;;2.40;2.03;;;;;;;;;;5056389;28;20028;-78
2023/08/30 05:04:14;;;;;;;2.90;2.00;;;;;;;;;;5054294;28;20108;-78
2023/08/30 05:06:40;;;;;;;3.08;2.00;;;;;;;;;;5055495;28;20123;-78
2023/08/30 05:09:06;;;;;;;3.00;2.05;;;;;;;;;;5055274;28;20029;-78
2023/08/30 05:11:31;;;;;;;3.22;2.10;;;;;;;;;;5054920;28;20047;-77
2023/08/30 05:13:56;;;;;;;4.87;2.20;;;;;;;;;;5057425;28;20052;-77
2023/08/30 05:16:22;;;;;;;2.60;1.90;;;;;;;;;;5058572;28;20258;-77
2023/08/30 05:18:50;;;;;;;2.88;1.90;;;;;;;;;;5060581;28;20500;-81
2023/08/30 05:21:15;;;;;;;7.07;2.10;;;;;;;;;;5061349;28;20028;-82
2023/08/30 05:23:42;;;;;;;3.03;1.95;;;;;;;;;;5060985;28;20380;-78
2023/08/30 05:26:09;;;;;;;2.33;2.03;;;;;;;;;;5060478;28;20048;-78
2023/08/30 05:28:35;;;;;;;2.85;1.75;;;;;;;;;;5061207;28;20024;-78
2023/08/30 05:31:00;;;;;;;3.37;2.20;;;;;;;;;;5061215;28;20029;-77
2023/08/30 05:33:25;;;;;;;6.55;2.05;;;;;;;;;;5058969;28;20262;-77
2023/08/30 05:35:50;;;;;;;5.18;2.30;;;;;;;;;;5057271;28;20158;-77
2023/08/30 05:38:16;;;;;;;3.90;2.20;;;;;;;;;;5055137;28;20476;-79
2023/08/30 05:40:44;;;;;;;3.25;2.25;;;;;;;;;;5056721;28;20036;-78
2023/08/30 05:43:10;;;;;;;3.50;1.90;;;;;;;;;;5057772;28;20507;-78
2023/08/30 05:45:35;;;;;;;3.03;1.85;;;;;;;;;;5058064;28;20020;-77
2023/08/30 05:48:00;;;;;;;2.83;1.87;;;;;;;;;;5056969;28;20020;-77
2023/08/30 05:50:25;;;;;;;2.83;1.90;;;;;;;;;;5058528;28;20258;-78
2023/08/30 05:52:51;;;;;;;3.38;2.10;;;;;;;;;;5057911;28;20250;-80
2023/08/30 05:55:16;;;;;;;3.92;2.33;;;;;;;;;;5059315;28;20048;-77
2023/08/30 05:57:41;;;;;;;6.15;2.10;;;;;;;;;;5053188;28;20021;-77
2023/08/30 06:00:08;;;;;;;5.68;2.17;;;;;;;;;;5053111;28;20021;-78
2023/08/30 06:02:33;;;;;;;4.07;2.20;;;;;;;;;;5052383;28;20094;-77
2023/08/30 06:04:59;;;;;;;5.85;1.80;;;;;;;;;;5052660;28;20496;-77
2023/08/30 06:07:24;;;;;;;3.92;2.10;;;;;;;;;;5053018;28;20464;-77
2023/08/30 06:09:49;;;;;;;2.88;2.10;;;;;;;;;;5053024;28;20020;-77
2023/08/30 06:12:14;;;;;;;3.35;2.00;;;;;;;;;;5053016;28;20031;-77
2023/08/30 06:14:40;;;;;;;2.85;1.98;;;;;;;;;;5054913;28;20472;-73
2023/08/30 06:17:05;;;;;;;2.47;1.80;;;;;;;;;;5057482;28;20016;-77
2023/08/30 06:19:30;;;;;;;2.40;1.90;;;;;;;;;;5057677;28;20262;-77
2023/08/30 06:21:55;;;;;;;2.20;1.92;;;;;;;;;;5057012;28;20261;-76
2023/08/30 06:24:21;;;;;;;6.25;2.10;;;;;;;;;;5055962;28;20027;-77
2023/08/30 06:26:47;;;;;;;4.57;1.70;;;;;;;;;;5055231;28;20075;-77
2023/08/30 06:29:12;;;;;;;4.20;1.88;;;;;;;;;;5052312;28;20479;-78
2023/08/30 06:31:39;;;;;;;2.10;1.80;;;;;;;;;;5052057;28;20111;-78
2023/08/30 06:34:04;;;;;;;3.67;2.08;;;;;;;;;;5054154;28;20027;-76
2023/08/30 06:36:29;;;;;;;2.58;2.20;;;;;;;;;;5054605;28;20434;-77
2023/08/30 06:38:55;;;;;;;3.20;1.98;;;;;;;;;;5053765;28;20029;-77
2023/08/30 06:41:20;;;;;;;3.10;2.10;;;;;;;;;;5053718;28;20025;-77
2023/08/30 06:43:45;;;;;;;5.07;2.38;;;;;;;;;;5054732;28;20270;-76
2023/08/30 06:46:10;;;;;;;4.68;2.33;;;;;;;;;;5053338;28;20075;-77
2023/08/30 06:48:36;;;;;;;6.30;2.00;;;;;;;;;;5054538;28;20017;-77
2023/08/30 06:51:01;;;;;;;3.43;1.87;;;;;;;;;;5053420;28;20078;-77
2023/08/30 06:53:27;;;;;;;2.88;1.80;;;;;;;;;;5054679;28;20255;-77
2023/08/30 06:56:01;;;;;;;3.65;1.85;;;;;;;;;;5054526;28;20032;-77
2023/08/30 06:58:26;;;;;;;3.20;2.10;;;;;;;;;;5054588;28;20020;-77
2023/08/30 07:00:52;;;;;;;4.72;1.90;;;;;;;;;;5054606;28;20021;-77
2023/08/30 07:03:18;;;;;;;3.70;2.10;;;;;;;;;;5054921;28;20191;-77
2023/08/30 07:05:43;;;;;;;3.42;2.15;;;;;;;;;;5054360;28;20500;-77
2023/08/30 07:08:09;;;;;;;4.25;2.40;;;;;;;;;;5054194;28;20448;-77
2023/08/30 07:10:34;;;;;;;5.05;2.38;;;;;;;;;;5054505;28;20400;-77
2023/08/30 07:13:00;;;;;;;6.65;2.47;;;;;;;;;;5054422;28;20040;-77
2023/08/30 07:15:25;;;;;;;3.28;2.50;;;;;;;;;;5054082;28;20021;-77
2023/08/30 07:17:50;;;;;;;3.95;2.65;;;;;;;;;;5053951;28;20025;-77
2023/08/30 07:20:16;;;;;;;5.90;3.20;;;;;;;;;;5054249;28;20031;-76
2023/08/30 07:22:42;;;;;;;5.90;3.08;;;;;;;;;;5054902;28;20025;-77
2023/08/30 07:25:08;;;;;;;4.90;3.15;;;;;;;;;;5053823;28;20032;-76
2023/08/30 07:27:33;;;;;;;5.65;3.30;;;;;;;;;;5053818;28;20105;-77
2023/08/30 07:29:59;;;;;;;7.03;3.35;;;;;;;;;;5053653;28;20492;-77
2023/08/30 07:32:24;;;;;;;5.88;3.47;;;;;;;;;;5052528;28;20116;-77
2023/08/30 07:34:49;;;;;;;5.32;3.22;;;;;;;;;;5052347;28;20494;-77
2023/08/30 07:37:19;;;;;;;5.88;3.30;;;;;;;;;;5053565;28;20098;-76
2023/08/30 07:39:45;;;;;;;4.82;3.70;;;;;;;;;;5053320;28;20036;-77
2023/08/30 07:42:10;;;;;;;6.18;3.88;;;;;;;;;;5053612;28;20029;-77
2023/08/30 07:44:35;;;;;;;6.45;3.60;;;;;;;;;;5053717;28;20572;-77
2023/08/30 07:47:01;;;;;;;5.25;3.22;;;;;;;;;;5053457;28;20028;-77
2023/08/30 07:49:26;;;;;;;6.07;3.20;;;;;;;;;;5053675;28;20112;-76
2023/08/30 07:51:51;;;;;;;4.53;3.37;;;;;;;;;;5052693;28;20736;-77
2023/08/30 07:54:16;;;;;;;6.10;3.13;;;;;;;;;;5053630;28;20664;-78
2023/08/30 07:56:42;;;;;;;5.55;3.20;;;;;;;;;;5053433;28;20025;-77
2023/08/30 07:59:07;;;;;;;5.97;3.50;;;;;;;;;;5053250;28;20029;-76
2023/08/30 08:01:32;;;;;;;4.95;3.20;;;;;;;;;;5053504;28;20268;-77
2023/08/30 08:03:57;;;;;;;4.57;2.90;;;;;;;;;;5053118;28;20025;-77
2023/08/30 08:06:22;;;;;;;5.57;2.90;;;;;;;;;;5053334;28;20253;-77
2023/08/30 08:08:48;;;;;;;3.70;2.70;;;;;;;;;;5053105;28;20264;-75
2023/08/30 08:11:13;;;;;;;4.07;2.70;;;;;;;;;;5051119;28;20315;-70
2023/08/30 08:13:38;;;;;;;4.43;3.00;;;;;;;;;;5052802;28;20316;-74
2023/08/30 08:16:04;;;;;;;4.18;2.60;;;;;;;;;;5051814;28;20392;-72
2023/08/30 08:18:29;;;;;;;6.85;2.90;;;;;;;;;;5053181;28;20056;-76
2023/08/30 08:20:54;;;;;;;5.15;2.53;;;;;;;;;;5051780;28;20028;-75
2023/08/30 08:23:19;;;;;;;3.67;2.40;;;;;;;;;;5052809;28;20059;-75
2023/08/30 08:25:45;;;;;;;3.85;2.38;;;;;;;;;;5053297;28;20261;-74
2023/08/30 08:28:10;;;;;;;2.83;2.30;;;;;;;;;;5052916;28;20527;-76
2023/08/30 08:30:36;;;;;;;3.50;2.28;;;;;;;;;;5051654;28;20086;-75
2023/08/30 08:33:01;;;;;;;4.68;2.10;;;;;;;;;;5052772;28;20495;-75
2023/08/30 08:35:26;;;;;;;4.70;2.13;;;;;;;;;;5051640;28;20025;-75
2023/08/30 08:37:52;;;;;;;3.63;2.03;;;;;;;;;;5051255;28;20056;-75
2023/08/30 08:40:17;;;;;;;3.38;2.10;;;;;;;;;;5051647;28;20025;-75
2023/08/30 08:42:43;;;;;;;4.78;2.00;;;;;;;;;;5052647;28;20541;-75
2023/08/30 08:45:10;;;;;;;3.78;2.20;;;;;;;;;;5052008;28;20021;-75
2023/08/30 08:47:36;;;;;;;5.28;2.28;;;;;;;;;;5052655;28;20048;-74
2023/08/30 08:50:03;;;;;;;5.18;2.30;;;;;;;;;;5052747;28;20068;-74
2023/08/30 08:52:29;;;;;;;3.58;2.10;;;;;;;;;;5056729;28;20052;-75
2023/08/30 08:54:55;;;;;;;3.95;1.80;;;;;;;;;;5057097;28;20473;-76
2023/08/30 08:57:20;;;;;;;3.75;2.05;;;;;;;;;;5056773;28;20365;-75
2023/08/30 08:59:46;;;;;;;3.22;1.95;;;;;;;;;;5056795;28;20033;-75
2023/08/30 09:02:14;;;;;;;2.72;2.13;;;;;;;;;;5055631;28;20021;-75
2023/08/30 09:04:40;;;;;;;5.20;2.08;;;;;;;;;;5056065;28;20021;-75
2023/08/30 09:07:05;;;;;;;2.58;1.90;;;;;;;;;;5056512;28;20071;-75
2023/08/30 09:09:31;;;;;;;3.92;2.30;;;;;;;;;;5056716;28;20117;-75
2023/08/30 09:11:56;;;;;;;3.22;2.03;;;;;;;;;;5056859;28;20032;-74
2023/08/30 09:14:21;;;;;;;3.65;2.20;;;;;;;;;;5056646;28;20017;-76
2023/08/30 09:17:00;;;;;;;2.88;1.80;;;;;;;;;;5056781;28;20079;-74
2023/08/30 09:19:26;;;;;;;2.13;1.73;;;;;;;;;;5054977;28;20025;-75
2023/08/30 09:21:55;;;;;;;4.85;2.17;;;;;;;;;;5056340;28;20025;-74
2023/08/30 09:24:21;;;;;;;4.47;1.90;;;;;;;;;;5055326;28;20041;-74
2023/08/30 09:26:52;;;;;;;2.00;1.67;;;;;;;;;;5056694;28;20069;-76
2023/08/30 09:29:18;;;;;;;4.57;1.88;;;;;;;;;;5055329;28;20083;-75
2023/08/30 09:31:44;;;;;;;3.10;2.05;;;;;;;;;;5055800;28;20029;-75
2023/08/30 09:34:13;;;;;;;3.33;2.00;;;;;;;;;;5057215;28;20064;-75
2023/08/30 09:36:39;;;;;;;2.58;2.00;;;;;;;;;;5057033;28;20056;-73
2023/08/30 09:39:05;;;;;;;4.65;1.83;;;;;;;;;;5054455;28;20083;-76
2023/08/30 09:41:32;;;;;;;4.80;2.00;;;;;;;;;;5058879;28;20029;-76
2023/08/30 09:43:58;;;;;;;3.03;1.77;;;;;;;;;;5054255;28;20033;-74
2023/08/30 09:46:24;;;;;;;4.13;1.88;;;;;;;;;;5055798;28;20079;-76
2023/08/30 09:48:50;;;;;;;4.97;2.10;;;;;;;;;;5056047;28;20025;-75
2023/08/30 09:51:17;;;;;;;3.55;1.85;;;;;;;;;;5055151;28;20117;-76
2023/08/30 09:53:45;;;;;;;9.20;2.10;;;;;;;;;;5054943;28;20467;-75
2023/08/30 09:56:13;;;;;;;4.03;1.98;;;;;;;;;;5055979;28;20431;-74
2023/08/30 09:58:40;;;;;;;3.35;1.80;;;;;;;;;;5054917;28;20435;-75
2023/08/30 10:01:06;;;;;;;2.83;1.73;;;;;;;;;;5053137;28;20534;-74
2023/08/30 10:03:33;;;;;;;3.22;1.67;;;;;;;;;;5053675;28;20033;-75
2023/08/30 10:06:00;;;;;;;2.30;1.77;;;;;;;;;;5053862;28;20028;-78
2023/08/30 10:08:30;;;;;;;3.20;1.48;;;;;;;;;;5052250;28;20025;-77
2023/08/30 10:10:58;;;;;;;2.17;1.60;;;;;;;;;;5053340;28;20028;-77
2023/08/30 10:13:25;;;;;;;2.22;1.60;;;;;;;;;;5053812;28;20484;-74
2023/08/30 10:15:56;;;;;;;2.20;1.52;;;;;;;;;;5053718;28;20104;-76
2023/08/30 10:18:24;;;;;;;2.95;2.00;;;;;;;;;;5055994;28;20032;-77
2023/08/30 10:20:54;;;;;;;2.80;1.80;;;;;;;;;;5055010;28;20021;-76
2023/08/30 10:23:20;;;;;;;2.03;1.58;;;;;;;;;;5055674;28;20464;-75
2023/08/30 10:25:46;;;;;;;4.97;1.63;;;;;;;;;;5055394;28;20443;-77
2023/08/30 10:28:12;;;;;;;5.03;1.77;;;;;;;;;;5056146;28;20029;-77
2023/08/30 10:30:38;;;;;;;3.92;1.70;;;;;;;;;;5054018;28;20369;-75
2023/08/30 10:33:13;;;;;;;6.47;2.05;;;;;;;;;;5037627;28;20029;-75
2023/08/30 10:35:47;;;;;;;2.70;1.95;;;;;;;;;;5053879;28;20021;-75
2023/08/30 10:38:12;;;;;;;2.17;1.52;;;;;;;;;;5055997;28;20032;-77
2023/08/30 10:40:47;;;;;;;2.70;1.75;;;;;;;;;;5054383;28;20028;-76
2023/08/30 10:43:12;;;;;;;2.45;1.70;;;;;;;;;;5055415;28;20082;-76
2023/08/30 10:45:37;;;;;;;2.08;1.75;;;;;;;;;;5054525;28;20043;-77
2023/08/30 10:48:03;;;;;;;4.20;1.80;;;;;;;;;;5054369;28;20477;-76
2023/08/30 10:50:34;;;;;;;2.85;1.70;;;;;;;;;;5054598;28;20091;-76
2023/08/30 10:53:00;;;;;;;3.58;1.70;;;;;;;;;;5054549;28;20066;-76
2023/08/30 10:55:25;;;;;;;3.53;1.65;;;;;;;;;;5055007;28;20025;-77
2023/08/30 10:58:02;;;;;;;4.68;1.83;;;;;;;;;;5053800;28;20165;-77
2023/08/30 11:00:29;;;;;;;4.13;1.70;;;;;;;;;;5054786;28;20027;-76
2023/08/30 11:02:55;;;;;;;2.63;1.58;;;;;;;;;;5054540;28;20032;-76
2023/08/30 11:05:23;;;;;;;2.25;1.52;;;;;;;;;;5054359;28;20108;-76
2023/08/30 11:07:49;;;;;;;2.13;1.45;;;;;;;;;;5053180;28;20121;-76
2023/08/30 11:10:15;;;;;;;3.72;1.50;;;;;;;;;;5054211;28;20025;-77
2023/08/30 11:12:41;;;;;;;2.45;1.60;;;;;;;;;;5053987;28;20031;-77
2023/08/30 11:15:08;;;;;;;2.85;1.50;;;;;;;;;;5053755;28;20059;-77
2023/08/30 11:17:34;;;;;;;2.95;1.35;;;;;;;;;;5054025;28;20120;-76
2023/08/30 11:20:09;;;;;;;2.15;1.20;;;;;;;;;;5054016;28;20025;-77
2023/08/30 11:22:45;;;;;;;2.10;1.13;;;;;;;;;;5054478;28;20028;-76
2023/08/30 11:25:13;;;;;;;7.45;1.25;;;;;;;;;;5054344;28;20025;-76
2023/08/30 11:27:39;;;;;;;3.17;1.20;;;;;;;;;;5053923;28;20029;-75
2023/08/30 11:30:06;;;;;;;5.72;1.17;;;;;;;;;;5054104;28;20071;-76
2023/08/30 11:32:35;;;;;;;1.90;1.10;;;;;;;;;;5054292;28;20060;-77
2023/08/30 11:35:01;;;;;;;2.42;1.30;;;;;;;;;;5053961;28;20035;-76
2023/08/30 11:37:27;;;;;;;3.15;1.23;;;;;;;;;;5054704;28;20033;-76
2023/08/30 11:39:53;;;;;;;2.67;1.10;;;;;;;;;;5055879;28;20025;-77
2023/08/30 11:42:19;;;;;;;4.68;1.15;;;;;;;;;;5054949;28;20055;-78
2023/08/30 11:44:45;;;;;;;4.40;1.40;;;;;;;;;;5055737;28;20067;-77
2023/08/30 11:47:10;;;;;;;8.27;1.20;;;;;;;;;;5055956;28;20033;-77
2023/08/30 11:49:36;;;;;;;3.40;1.40;;;;;;;;;;5057136;28;20032;-77
2023/08/30 11:52:02;;;;;;;2.90;1.30;;;;;;;;;;5057064;28;20250;-78
2023/08/30 11:54:28;;;;;;;5.18;1.35;;;;;;;;;;5059405;28;20025;-78
2023/08/30 11:56:53;;;;;;;3.60;1.23;;;;;;;;;;5053760;28;20075;-75
2023/08/30 11:59:20;;;;;;;3.67;1.40;;;;;;;;;;5054361;28;20028;-75
2023/08/30 12:01:46;;;;;;;4.63;1.20;;;;;;;;;;5053717;28;20029;-74
2023/08/30 12:04:11;;;;;;;2.35;1.35;;;;;;;;;;5053832;28;20097;-77
2023/08/30 12:06:36;;;;;;;3.03;1.20;;;;;;;;;;5054314;28;20028;-74
2023/08/30 12:09:04;;;;;;;1.77;1.30;;;;;;;;;;5054552;28;20048;-77
2023/08/30 12:11:31;;;;;;;2.90;1.23;;;;;;;;;;5055277;28;20035;-76
2023/08/30 12:14:02;;;;;;;2.25;1.15;;;;;;;;;;5053880;28;20025;-75
2023/08/30 12:16:27;;;;;;;2.15;1.23;;;;;;;;;;5052498;28;20040;-76
2023/08/30 12:18:52;;;;;;;3.10;1.30;;;;;;;;;;5052388;28;20033;-76
2023/08/30 12:21:17;;;;;;;1.73;1.40;;;;;;;;;;5052937;28;20737;-76
2023/08/30 12:23:43;;;;;;;3.97;1.35;;;;;;;;;;5051602;28;20024;-76
2023/08/30 12:26:11;;;;;;;2.78;1.30;;;;;;;;;;5052727;28;20035;-76
2023/08/30 12:28:41;;;;;;;1.55;1.38;;;;;;;;;;5052731;28;20033;-76
2023/08/30 12:31:07;;;;;;;4.18;1.50;;;;;;;;;;5051792;28;20025;-76
2023/08/30 12:33:36;;;;;;;1.60;1.17;;;;;;;;;;5051878;28;20125;-77
2023/08/30 12:36:01;;;;;;;3.13;1.30;;;;;;;;;;5053110;28;20075;-76
2023/08/30 12:38:27;;;;;;;1.75;1.17;;;;;;;;;;5052474;28;20488;-77
2023/08/30 12:40:56;;;;;;;4.78;1.30;;;;;;;;;;5051899;28;20029;-76
2023/08/30 12:43:22;;;;;;;2.00;1.33;;;;;;;;;;5051465;28;20025;-76
2023/08/30 12:45:48;;;;;;;2.10;1.10;;;;;;;;;;5052973;28;20060;-76
2023/08/30 12:48:15;;;;;;;2.47;1.20;;;;;;;;;;5051688;28;20033;-75
2023/08/30 12:50:45;;;;;;;2.47;1.40;;;;;;;;;;5052081;28;20053;-76
2023/08/30 12:53:11;;;;;;;3.15;1.20;;;;;;;;;;5052561;28;20028;-77
2023/08/30 12:55:36;;;;;;;4.35;1.40;;;;;;;;;;5053175;28;20536;-76
2023/08/30 12:58:05;;;;;;;1.73;1.20;;;;;;;;;;5052548;28;20388;-74
2023/08/30 13:00:30;;;;;;;2.28;1.40;;;;;;;;;;5052647;28;20259;-77
2023/08/30 13:02:55;;;;;;;2.22;1.40;;;;;;;;;;5052965;28;20025;-77
2023/08/30 13:05:21;;;;;;;3.72;1.38;;;;;;;;;;5052712;28;20021;-77
2023/08/30 13:07:47;;;;;;;3.40;1.20;;;;;;;;;;5052957;28;20031;-77
2023/08/30 13:10:12;;;;;;;5.57;1.40;;;;;;;;;;5052977;28;20078;-77
2023/08/30 13:12:38;;;;;;;6.78;1.30;;;;;;;;;;5052687;28;20029;-76
2023/08/30 13:15:04;;;;;;;3.47;1.23;;;;;;;;;;5052573;28;20079;-75
2023/08/30 13:17:30;;;;;;;2.63;1.23;;;;;;;;;;5051056;28;20115;-76
2023/08/30 13:19:56;;;;;;;3.20;1.00;;;;;;;;;;5051208;28;20120;-74
2023/08/30 13:22:22;;;;;;;2.28;1.00;;;;;;;;;;5052443;28;20395;-76
2023/08/30 13:24:47;;;;;;;3.03;1.20;;;;;;;;;;5052127;28;20100;-80
2023/08/30 13:27:12;;;;;;;1.88;1.30;;;;;;;;;;5052431;28;20464;-77
2023/08/30 13:29:38;;;;;;;2.97;1.40;;;;;;;;;;5052591;28;20036;-75
2023/08/30 13:32:03;;;;;;;2.20;0.98;;;;;;;;;;5051040;28;20021;-76
2023/08/30 13:34:29;;;;;;;2.33;1.23;;;;;;;;;;5052183;28;20029;-76
2023/08/30 13:36:54;;;;;;;3.53;1.23;;;;;;;;;;5053793;28;20040;-75
2023/08/30 13:39:22;;;;;;;2.50;1.37;;;;;;;;;;5055101;28;20025;-76
2023/08/30 13:41:47;;;;;;;2.83;1.42;;;;;;;;;;5056115;28;20250;-74
2023/08/30 13:44:14;;;;;;;2.55;1.38;;;;;;;;;;5056884;28;20029;-78
2023/08/30 13:46:39;;;;;;;3.60;1.30;;;;;;;;;;5056235;28;20112;-73
2023/08/30 13:49:05;;;;;;;2.72;1.23;;;;;;;;;;5053250;28;20064;-73
2023/08/30 13:51:30;;;;;;;3.05;1.60;;;;;;;;;;5055770;28;20396;-76
2023/08/30 13:53:56;;;;;;;2.22;1.40;;;;;;;;;;5056782;28;20476;-77
2023/08/30 13:56:22;;;;;;;3.17;1.40;;;;;;;;;;5056554;28;20498;-77
2023/08/30 13:58:47;;;;;;;1.50;1.20;;;;;;;;;;5056082;28;20111;-76
2023/08/30 14:01:12;;;;;;;1.67;1.27;;;;;;;;;;5056414;28;20063;-76
2023/08/30 14:03:38;;;;;;;2.53;1.40;;;;;;;;;;5055848;28;20029;-76
2023/08/30 14:06:03;;;;;;;4.00;1.40;;;;;;;;;;5055758;28;20036;-76
2023/08/30 14:08:29;;;;;;;2.03;1.40;;;;;;;;;;5055498;28;20033;-75
2023/08/30 14:10:58;;;;;;;3.47;1.25;;;;;;;;;;5054036;28;20024;-75
2023/08/30 14:13:23;;;;;;;3.17;1.38;;;;;;;;;;5055389;28;20472;-76
2023/08/30 14:15:49;;;;;;;1.65;1.20;;;;;;;;;;5055773;28;20070;-76
2023/08/30 14:18:14;;;;;;;2.03;1.20;;;;;;;;;;5055608;28;20028;-76
2023/08/30 14:20:43;;;;;;;2.83;1.27;;;;;;;;;;5055424;28;20021;-77
2023/08/30 14:23:09;;;;;;;1.90;1.30;;;;;;;;;;5056413;28;20033;-76
2023/08/30 14:25:34;;;;;;;1.58;1.30;;;;;;;;;;5055868;28;20020;-76
2023/08/30 14:28:01;;;;;;;1.80;1.23;;;;;;;;;;5054342;28;20036;-75
2023/08/30 14:30:26;;;;;;;1.48;1.20;;;;;;;;;;5053969;28;20024;-74
2023/08/30 14:32:52;;;;;;;6.53;1.50;;;;;;;;;;5055798;28;20446;-74
2023/08/30 14:35:20;;;;;;;2.22;1.30;;;;;;;;;;5055588;28;20103;-75
2023/08/30 14:37:47;;;;;;;2.72;1.13;;;;;;;;;;5053728;28;20392;-76